Time,TemperatureF,DewpointF,PressureIn,WindDirection,WindDirectionDegrees,WindSpeedMPH,WindSpeedGustMPH,Humidity,HourlyPrecipIn,Conditions,Clouds,dailyrainin,SoftwareType,DateUTC
2013-05-16 14:47:00,75.2,43.9,29.97,East,90,3.6,3.6,33,0.00,,,0.00,WUHU216HW,2013-05-16 19:47:00,
2013-05-16 14:48:00,75.2,43.9,29.97,East,90,3.6,3.6,33,0.00,,,0.00,WUHU216HW,2013-05-16 19:48:00,
2013-05-16 14:53:00,75.2,43.9,29.97,East,90,3.6,3.6,33,0.00,,,0.00,WUHU216HW,2013-05-16 19:53:00,
2013-05-16 14:58:00,75.2,43.9,29.97,East,90,3.6,3.6,33,0.00,,,0.00,WUHU216HW,2013-05-16 19:58:00,
2013-05-16 15:03:00,72.6,45.5,29.96,ESE,113,2.1,3.6,38,0.00,,,0.00,WUHU216HW,2013-05-16 20:03:00,
2013-05-16 15:08:00,72.1,44.2,29.96,East,90,4.8,4.8,37,0.00,,,0.00,WUHU216HW,2013-05-16 20:08:00,
2013-05-16 15:13:00,72.1,43.5,29.96,ESE,113,2.1,4.8,36,0.00,,,0.00,WUHU216HW,2013-05-16 20:13:00,
2013-05-16 15:18:00,72.1,45.0,29.96,ESE,113,3.1,3.6,38,0.00,,,0.00,WUHU216HW,2013-05-16 20:18:00,
2013-05-16 15:23:00,72.1,45.0,29.96,ESE,113,3.6,6.4,38,0.00,,,0.00,WUHU216HW,2013-05-16 20:23:00,
2013-05-16 15:28:00,71.2,44.9,29.96,East,90,1.6,6.4,39,0.00,,,0.00,WUHU216HW,2013-05-16 20:28:00,
2013-05-16 15:33:00,71.2,45.7,29.96,East,90,0.0,3.6,40,0.00,,,0.00,WUHU216HW,2013-05-16 20:33:00,
2013-05-16 15:38:00,71.2,45.7,29.96,East,90,0.0,0.0,40,0.00,,,0.00,WUHU216HW,2013-05-16 20:38:00,
2013-05-16 15:43:00,71.2,45.7,29.96,East,90,0.0,0.0,40,0.00,,,0.00,WUHU216HW,2013-05-16 20:43:00,
2013-05-16 15:48:00,71.0,46.1,29.96,ESE,113,0.0,0.0,41,0.00,,,0.00,WUHU216HW,2013-05-16 20:48:00,
2013-05-16 15:53:00,71.0,46.1,29.96,ESE,113,0.0,0.0,41,0.00,,,0.00,WUHU216HW,2013-05-16 20:53:00,
2013-05-16 15:58:00,71.0,46.1,29.96,ESE,113,0.0,0.0,41,0.00,,,0.00,WUHU216HW,2013-05-16 20:58:00,
2013-05-16 16:03:00,71.0,46.1,29.96,NNE,23,8.0,8.0,41,0.00,,,0.00,WUHU216HW,2013-05-16 21:03:00,
2013-05-16 16:08:00,71.0,46.1,29.95,NNE,23,8.0,8.0,41,0.00,,,0.00,WUHU216HW,2013-05-16 21:08:00,
2013-05-16 16:13:00,71.0,46.1,29.95,NNE,23,8.0,8.0,41,0.00,,,0.00,WUHU216HW,2013-05-16 21:13:00,
2013-05-16 16:18:00,71.0,46.1,29.95,NNE,23,8.0,8.0,41,0.00,,,0.00,WUHU216HW,2013-05-16 21:18:00,
2013-05-16 16:30:00,73.0,45.0,29.94,NNE,23,11.1,11.1,37,0.00,,,0.00,WUHU216HW,2013-05-16 21:30:00,
2013-05-16 16:35:00,73.2,45.2,29.93,NE,45,4.4,11.1,37,0.00,,,0.00,WUHU216HW,2013-05-16 21:35:00,
2013-05-16 16:40:00,73.9,45.8,29.93,NE,45,3.3,11.1,37,0.00,,,0.00,WUHU216HW,2013-05-16 21:40:00,
2013-05-16 16:45:00,74.4,44.8,29.94,NE,45,7.5,16.8,35,0.00,,,0.00,WUHU216HW,2013-05-16 21:45:00,
2013-05-16 16:50:00,74.4,44.8,29.93,NE,45,6.4,16.8,35,0.00,,,0.00,WUHU216HW,2013-05-16 21:50:00,
2013-05-16 16:55:00,74.4,44.8,29.93,ENE,72,5.5,7.5,35,0.00,,,0.00,WUHU216HW,2013-05-16 21:55:00,
2013-05-16 17:00:00,74.4,44.8,29.93,NE,51,6.5,7.3,35,0.00,,,0.00,WUHU216HW,2013-05-16 22:00:00,
2013-05-16 17:05:00,74.3,44.6,29.93,NE,45,7.8,7.8,35,0.00,,,0.00,WUHU216HW,2013-05-16 22:05:00,
2013-05-16 17:10:00,73.9,44.3,29.93,NE,45,3.6,7.8,35,0.00,,,0.00,WUHU216HW,2013-05-16 22:10:00,
2013-05-16 17:15:00,73.7,44.2,29.93,NE,45,4.4,7.8,35,0.00,,,0.00,WUHU216HW,2013-05-16 22:15:00,
2013-05-16 17:20:00,73.2,43.7,29.93,NE,45,8.2,8.4,35,0.00,,,0.00,WUHU216HW,2013-05-16 22:20:00,
2013-05-16 17:25:00,73.0,44.3,29.93,NE,45,6.4,8.4,36,0.00,,,0.00,WUHU216HW,2013-05-16 22:25:00,
2013-05-16 17:30:00,72.5,43.8,29.93,ENE,68,5.5,8.0,36,0.00,,,0.00,WUHU216HW,2013-05-16 22:30:00,
2013-05-16 17:35:00,71.7,43.2,29.93,NE,45,7.3,7.3,36,0.00,,,0.00,WUHU216HW,2013-05-16 22:35:00,
2013-05-16 17:40:00,71.2,44.2,29.93,NE,45,8.4,8.4,38,0.00,,,0.00,WUHU216HW,2013-05-16 22:40:00,
2013-05-16 17:45:00,70.8,43.9,29.93,NE,45,5.3,8.4,38,0.00,,,0.00,WUHU216HW,2013-05-16 22:45:00,
2013-05-16 17:50:00,70.5,43.5,29.92,NE,45,6.3,8.4,38,0.00,,,0.00,WUHU216HW,2013-05-16 22:50:00,
2013-05-16 17:55:00,70.5,44.3,29.93,ENE,68,2.8,7.5,39,0.00,,,0.00,WUHU216HW,2013-05-16 22:55:00,
2013-05-16 18:00:00,70.5,45.0,29.93,ENE,68,6.6,6.6,40,0.00,,,0.00,WUHU216HW,2013-05-16 23:00:00,
2013-05-16 18:05:00,70.7,45.2,29.93,NE,45,6.6,6.6,40,0.00,,,0.00,WUHU216HW,2013-05-16 23:05:00,
2013-05-16 18:10:00,70.7,45.2,29.93,ENE,68,10.0,10.0,40,0.00,,,0.00,WUHU216HW,2013-05-16 23:10:00,
2013-05-16 18:15:00,70.7,45.2,29.93,ENE,68,6.6,10.0,40,0.00,,,0.00,WUHU216HW,2013-05-16 23:15:00,
2013-05-16 18:20:00,70.5,44.3,29.92,ENE,68,6.4,9.5,39,0.00,,,0.00,WUHU216HW,2013-05-16 23:20:00,
2013-05-16 18:25:00,70.1,44.7,29.93,East,90,8.6,8.6,40,0.00,,,0.00,WUHU216HW,2013-05-16 23:25:00,
2013-05-16 18:30:00,69.4,44.6,29.93,ENE,68,6.6,8.6,41,0.00,,,0.00,WUHU216HW,2013-05-16 23:30:00,
2013-05-16 18:35:00,69.0,44.3,29.92,NE,45,7.3,7.3,41,0.00,,,0.00,WUHU216HW,2013-05-16 23:35:00,
2013-05-16 18:40:00,68.7,44.0,29.92,ENE,68,4.4,8.6,41,0.00,,,0.00,WUHU216HW,2013-05-16 23:40:00,
2013-05-16 18:45:00,68.5,44.4,29.92,East,79,6.5,8.6,42,0.00,,,0.00,WUHU216HW,2013-05-16 23:45:00,